sensor_id;sensor_type;location;lat;lon;timestamp;pressure;altitude;pressure_sealevel;temperature;humidity
54854;BME280;40747;49.480;8.658;2024-03-06T00:01:57;100446.94;;;6.26;100.00
54854;BME280;40747;49.480;8.658;2024-03-06T00:04:22;100440.06;;;6.17;100.00
54854;BME280;40747;49.480;8.658;2024-03-06T00:06:48;100459.22;;;6.21;100.00
54854;BME280;40747;49.480;8.658;2024-03-06T00:09:13;100458.44;;;6.13;100.00
54854;BME280;40747;49.480;8.658;2024-03-06T00:11:38;100464.50;;;6.15;100.00
54854;BME280;40747;49.480;8.658;2024-03-06T00:14:05;100467.16;;;6.09;100.00
54854;BME280;40747;49.480;8.658;2024-03-06T00:16:34;100462.84;;;6.07;100.00
54854;BME280;40747;49.480;8.658;2024-03-06T00:18:59;100452.44;;;6.01;100.00
54854;BME280;40747;49.480;8.658;2024-03-06T00:21:24;100464.53;;;6.12;100.00
54854;BME280;40747;49.480;8.658;2024-03-06T00:23:51;100474.03;;;6.22;100.00
54854;BME280;40747;49.480;8.658;2024-03-06T00:26:16;100462.53;;;6.37;100.00
54854;BME280;40747;49.480;8.658;2024-03-06T00:28:41;100467.78;;;6.34;100.00
54854;BME280;40747;49.480;8.658;2024-03-06T00:31:07;100476.59;;;6.28;100.00
54854;BME280;40747;49.480;8.658;2024-03-06T00:33:32;100478.38;;;6.23;100.00
54854;BME280;40747;49.480;8.658;2024-03-06T00:35:57;100474.94;;;6.16;100.00
54854;BME280;40747;49.480;8.658;2024-03-06T00:38:23;100485.44;;;6.13;100.00
54854;BME280;40747;49.480;8.658;2024-03-06T00:40:48;100486.34;;;6.11;100.00
54854;BME280;40747;49.480;8.658;2024-03-06T00:43:13;100486.31;;;6.12;100.00
54854;BME280;40747;49.480;8.658;2024-03-06T00:45:39;100439.47;;;5.87;100.00
54854;BME280;40747;49.480;8.658;2024-03-06T00:48:04;100486.25;;;6.21;100.00
54854;BME280;40747;49.480;8.658;2024-03-06T00:50:29;100484.44;;;6.25;100.00
54854;BME280;40747;49.480;8.658;2024-03-06T00:52:55;100490.50;;;6.29;100.00
54854;BME280;40747;49.480;8.658;2024-03-06T00:55:20;100494.00;;;6.31;100.00
54854;BME280;40747;49.480;8.658;2024-03-06T00:57:45;100494.84;;;6.31;100.00
54854;BME280;40747;49.480;8.658;2024-03-06T01:00:11;100486.03;;;6.42;100.00
54854;BME280;40747;49.480;8.658;2024-03-06T01:02:37;100493.84;;;6.43;100.00
54854;BME280;40747;49.480;8.658;2024-03-06T01:05:03;100481.72;;;6.36;100.00
54854;BME280;40747;49.480;8.658;2024-03-06T01:07:29;100485.16;;;6.41;100.00
54854;BME280;40747;49.480;8.658;2024-03-06T01:09:55;100480.91;;;6.32;100.00
54854;BME280;40747;49.480;8.658;2024-03-06T01:12:22;100483.38;;;6.46;100.00
54854;BME280;40747;49.480;8.658;2024-03-06T01:14:47;100497.34;;;6.40;100.00
54854;BME280;40747;49.480;8.658;2024-03-06T01:17:13;100485.06;;;6.50;100.00
54854;BME280;40747;49.480;8.658;2024-03-06T01:19:38;100489.31;;;6.59;100.00
54854;BME280;40747;49.480;8.658;2024-03-06T01:22:03;100478.06;;;6.52;100.00
54854;BME280;40747;49.480;8.658;2024-03-06T01:24:28;100475.38;;;6.59;100.00
54854;BME280;40747;49.480;8.658;2024-03-06T01:26:54;100479.66;;;6.64;100.00
54854;BME280;40747;49.480;8.658;2024-03-06T01:29:19;100488.38;;;6.66;99.92
54854;BME280;40747;49.480;8.658;2024-03-06T01:31:45;100482.41;;;6.53;100.00
54854;BME280;40747;49.480;8.658;2024-03-06T01:34:12;100485.94;;;6.48;100.00
54854;BME280;40747;49.480;8.658;2024-03-06T01:36:37;100492.00;;;6.56;100.00
54854;BME280;40747;49.480;8.658;2024-03-06T01:39:02;100490.22;;;6.56;100.00
54854;BME280;40747;49.480;8.658;2024-03-06T01:41:28;100484.13;;;6.56;100.00
54854;BME280;40747;49.480;8.658;2024-03-06T01:43:53;100484.19;;;6.50;99.83
54854;BME280;40747;49.480;8.658;2024-03-06T01:46:18;100485.03;;;6.52;100.00
54854;BME280;40747;49.480;8.658;2024-03-06T01:48:44;100487.69;;;6.49;100.00
54854;BME280;40747;49.480;8.658;2024-03-06T01:51:09;100490.31;;;6.46;100.00
54854;BME280;40747;49.480;8.658;2024-03-06T01:53:35;100486.84;;;6.45;100.00
54854;BME280;40747;49.480;8.658;2024-03-06T01:56:02;100491.31;;;6.38;100.00
54854;BME280;40747;49.480;8.658;2024-03-06T01:58:29;100477.28;;;6.43;100.00
54854;BME280;40747;49.480;8.658;2024-03-06T02:00:55;100477.31;;;6.41;100.00
54854;BME280;40747;49.480;8.658;2024-03-06T02:03:22;100488.59;;;6.43;100.00
54854;BME280;40747;49.480;8.658;2024-03-06T02:05:48;100478.16;;;6.45;100.00
54854;BME280;40747;49.480;8.658;2024-03-06T02:08:14;100487.72;;;6.46;99.80
54854;BME280;40747;49.480;8.658;2024-03-06T02:10:39;100473.91;;;6.34;99.37
54854;BME280;40747;49.480;8.658;2024-03-06T02:13:04;100483.41;;;6.42;99.81
54854;BME280;40747;49.480;8.658;2024-03-06T02:15:30;100480.84;;;6.38;99.58
54854;BME280;40747;49.480;8.658;2024-03-06T02:17:55;100494.72;;;6.44;100.00
54854;BME280;40747;49.480;8.658;2024-03-06T02:20:24;100486.81;;;6.50;100.00
54854;BME280;40747;49.480;8.658;2024-03-06T02:22:50;100498.19;;;6.46;99.92
54854;BME280;40747;49.480;8.658;2024-03-06T02:25:16;100493.81;;;6.48;99.99
54854;BME280;40747;49.480;8.658;2024-03-06T02:27:42;100498.16;;;6.49;99.87
54854;BME280;40747;49.480;8.658;2024-03-06T02:30:08;100499.91;;;6.50;99.53
54854;BME280;40747;49.480;8.658;2024-03-06T02:32:34;100486.81;;;6.50;100.00
54854;BME280;40747;49.480;8.658;2024-03-06T02:35:01;100465.09;;;6.40;99.49
54854;BME280;40747;49.480;8.658;2024-03-06T02:37:27;100487.72;;;6.46;99.51
54854;BME280;40747;49.480;8.658;2024-03-06T02:39:53;100500.81;;;6.47;99.13
54854;BME280;40747;49.480;8.658;2024-03-06T02:42:18;100488.63;;;6.45;98.82
54854;BME280;40747;49.480;8.658;2024-03-06T02:44:43;100508.63;;;6.49;98.78
54854;BME280;40747;49.480;8.658;2024-03-06T02:47:09;100501.75;;;6.40;98.82
54854;BME280;40747;49.480;8.658;2024-03-06T02:49:34;100503.50;;;6.36;99.19
54854;BME280;40747;49.480;8.658;2024-03-06T02:51:59;100497.44;;;6.33;99.66
54854;BME280;40747;49.480;8.658;2024-03-06T02:54:26;100501.81;;;6.32;99.33
54854;BME280;40747;49.480;8.658;2024-03-06T02:56:52;100498.34;;;6.32;99.26
54854;BME280;40747;49.480;8.658;2024-03-06T02:59:17;100500.13;;;6.28;99.56
54854;BME280;40747;49.480;8.658;2024-03-06T03:01:43;100494.00;;;6.31;99.64
54854;BME280;40747;49.480;8.658;2024-03-06T03:04:10;100483.50;;;6.34;100.00
54854;BME280;40747;49.480;8.658;2024-03-06T03:06:35;100488.72;;;6.34;99.12
54854;BME280;40747;49.480;8.658;2024-03-06T03:09:00;100488.69;;;6.35;99.17
54854;BME280;40747;49.480;8.658;2024-03-06T03:11:26;100485.22;;;6.35;98.86
54854;BME280;40747;49.480;8.658;2024-03-06T03:13:52;100484.44;;;6.25;98.97
54854;BME280;40747;49.480;8.658;2024-03-06T03:16:17;100483.53;;;6.28;99.46
54854;BME280;40747;49.480;8.658;2024-03-06T03:18:43;100490.59;;;6.24;99.37
54854;BME280;40747;49.480;8.658;2024-03-06T03:21:09;100486.25;;;6.20;99.86
54854;BME280;40747;49.480;8.658;2024-03-06T03:23:36;100494.06;;;6.23;100.00
54854;BME280;40747;49.480;8.658;2024-03-06T03:26:01;100490.63;;;6.19;100.00
54854;BME280;40747;49.480;8.658;2024-03-06T03:28:29;100484.44;;;6.25;100.00
54854;BME280;40747;49.480;8.658;2024-03-06T03:30:54;100488.78;;;6.29;99.56
54854;BME280;40747;49.480;8.658;2024-03-06T03:33:19;100494.00;;;6.31;99.43
54854;BME280;40747;49.480;8.658;2024-03-06T03:35:44;100491.38;;;6.28;99.61
54854;BME280;40747;49.480;8.658;2024-03-06T03:38:10;100501.88;;;6.29;99.11
54854;BME280;40747;49.480;8.658;2024-03-06T03:40:35;100509.72;;;6.26;98.49
54854;BME280;40747;49.480;8.658;2024-03-06T03:43:00;100502.75;;;6.27;98.25
54854;BME280;40747;49.480;8.658;2024-03-06T03:45:31;100507.09;;;6.28;98.48
54854;BME280;40747;49.480;8.658;2024-03-06T03:47:56;100479.28;;;6.17;98.39
54854;BME280;40747;49.480;8.658;2024-03-06T03:50:21;100505.41;;;6.22;98.51
54854;BME280;40747;49.480;8.658;2024-03-06T03:52:47;100502.78;;;6.23;98.77
54854;BME280;40747;49.480;8.658;2024-03-06T03:55:12;100515.22;;;5.98;97.76
54854;BME280;40747;49.480;8.658;2024-03-06T03:57:37;100518.75;;;5.88;97.98
54854;BME280;40747;49.480;8.658;2024-03-06T04:00:03;100521.34;;;5.93;98.83
54854;BME280;40747;49.480;8.658;2024-03-06T04:02:36;100512.69;;;5.86;98.33
54854;BME280;40747;49.480;8.658;2024-03-06T04:05:02;100511.06;;;5.69;98.42
54854;BME280;40747;49.480;8.658;2024-03-06T04:07:27;100513.69;;;5.65;98.81
54854;BME280;40747;49.480;8.658;2024-03-06T04:09:52;100514.59;;;5.62;99.52
54854;BME280;40747;49.480;8.658;2024-03-06T04:12:18;100517.22;;;5.61;100.00
54854;BME280;40747;49.480;8.658;2024-03-06T04:14:43;100514.56;;;5.68;100.00
54854;BME280;40747;49.480;8.658;2024-03-06T04:17:09;100517.13;;;5.74;100.00
54854;BME280;40747;49.480;8.658;2024-03-06T04:19:34;100521.47;;;5.76;100.00
54854;BME280;40747;49.480;8.658;2024-03-06T04:21:59;100517.97;;;5.77;100.00
54854;BME280;40747;49.480;8.658;2024-03-06T04:24:25;100527.59;;;5.73;100.00
54854;BME280;40747;49.480;8.658;2024-03-06T04:26:50;100530.22;;;5.68;100.00
54854;BME280;40747;49.480;8.658;2024-03-06T04:29:15;100526.75;;;5.69;100.00
54854;BME280;40747;49.480;8.658;2024-03-06T04:31:41;100533.66;;;5.77;100.00
54854;BME280;40747;49.480;8.658;2024-03-06T04:34:06;100530.13;;;5.79;100.00
54854;BME280;40747;49.480;8.658;2024-03-06T04:36:31;100547.72;;;5.60;100.00
54854;BME280;40747;49.480;8.658;2024-03-06T04:38:57;100545.94;;;5.65;100.00
54854;BME280;40747;49.480;8.658;2024-03-06T04:41:22;100519.88;;;5.53;100.00
54854;BME280;40747;49.480;8.658;2024-03-06T04:43:48;100547.72;;;5.57;100.00
54854;BME280;40747;49.480;8.658;2024-03-06T04:46:15;100550.34;;;5.52;100.00
54854;BME280;40747;49.480;8.658;2024-03-06T04:48:41;100556.44;;;5.56;100.00
54854;BME280;40747;49.480;8.658;2024-03-06T04:51:06;100555.53;;;5.65;100.00
54854;BME280;40747;49.480;8.658;2024-03-06T04:53:31;100556.34;;;5.71;100.00
54854;BME280;40747;49.480;8.658;2024-03-06T04:55:56;100560.72;;;5.71;100.00
54854;BME280;40747;49.480;8.658;2024-03-06T04:58:22;100482.63;;;5.23;100.00
54854;BME280;40747;49.480;8.658;2024-03-06T05:00:47;100571.06;;;5.82;100.00
54854;BME280;40747;49.480;8.658;2024-03-06T05:03:12;100575.41;;;5.87;100.00
54854;BME280;40747;49.480;8.658;2024-03-06T05:05:37;100562.31;;;5.89;100.00
54854;BME280;40747;49.480;8.658;2024-03-06T05:08:05;100559.78;;;5.80;100.00
54854;BME280;40747;49.480;8.658;2024-03-06T05:10:32;100577.09;;;5.96;100.00
54854;BME280;40747;49.480;8.658;2024-03-06T05:12:57;100574.47;;;5.96;100.00
54854;BME280;40747;49.480;8.658;2024-03-06T05:15:22;100578.81;;;6.00;100.00
54854;BME280;40747;49.480;8.658;2024-03-06T05:17:48;100579.69;;;6.04;100.00
54854;BME280;40747;49.480;8.658;2024-03-06T05:20:13;100581.41;;;6.05;100.00
54854;BME280;40747;49.480;8.658;2024-03-06T05:22:39;100584.88;;;6.05;100.00
54854;BME280;40747;49.480;8.658;2024-03-06T05:25:04;100579.78;;;5.85;100.00
54854;BME280;40747;49.480;8.658;2024-03-06T05:27:30;100590.38;;;5.67;100.00
54854;BME280;40747;49.480;8.658;2024-03-06T05:29:56;100591.16;;;5.77;100.00
54854;BME280;40747;49.480;8.658;2024-03-06T05:32:21;100598.63;;;4.48;100.00
54854;BME280;40747;49.480;8.658;2024-03-06T05:34:47;100601.22;;;4.00;100.00
54854;BME280;40747;49.480;8.658;2024-03-06T05:37:12;100602.94;;;3.79;100.00
54854;BME280;40747;49.480;8.658;2024-03-06T05:39:37;100610.75;;;3.81;100.00
54854;BME280;40747;49.480;8.658;2024-03-06T05:42:04;100616.03;;;4.08;100.00
54854;BME280;40747;49.480;8.658;2024-03-06T05:44:32;100614.25;;;3.95;100.00
54854;BME280;40747;49.480;8.658;2024-03-06T05:46:59;100621.22;;;3.96;100.00
54854;BME280;40747;49.480;8.658;2024-03-06T05:49:26;100604.69;;;3.80;100.00
54854;BME280;40747;49.480;8.658;2024-03-06T05:51:51;100621.19;;;3.87;100.00
54854;BME280;40747;49.480;8.658;2024-03-06T05:54:19;100628.16;;;3.91;100.00
54854;BME280;40747;49.480;8.658;2024-03-06T05:56:44;100635.13;;;3.89;100.00
54854;BME280;40747;49.480;8.658;2024-03-06T05:59:09;100638.56;;;3.92;100.00
54854;BME280;40747;49.480;8.658;2024-03-06T06:01:35;100641.22;;;3.94;100.00
54854;BME280;40747;49.480;8.658;2024-03-06T06:04:01;100644.69;;;4.08;100.00
54854;BME280;40747;49.480;8.658;2024-03-06T06:06:26;100644.72;;;4.29;100.00
54854;BME280;40747;49.480;8.658;2024-03-06T06:08:51;100651.63;;;4.59;100.00
54854;BME280;40747;49.480;8.658;2024-03-06T06:11:17;100649.00;;;4.81;100.00
54854;BME280;40747;49.480;8.658;2024-03-06T06:13:42;100656.81;;;5.01;100.00
54854;BME280;40747;49.480;8.658;2024-03-06T06:16:07;100658.47;;;5.20;100.00
54854;BME280;40747;49.480;8.658;2024-03-06T06:18:33;100667.16;;;5.35;100.00
54854;BME280;40747;49.480;8.658;2024-03-06T06:20:58;100671.47;;;5.47;100.00
54854;BME280;40747;49.480;8.658;2024-03-06T06:23:24;100674.88;;;5.61;100.00
54854;BME280;40747;49.480;8.658;2024-03-06T06:25:49;100681.81;;;5.70;100.00
54854;BME280;40747;49.480;8.658;2024-03-06T06:28:15;100678.28;;;5.79;100.00
54854;BME280;40747;49.480;8.658;2024-03-06T06:30:40;100682.56;;;5.90;100.00
54854;BME280;40747;49.480;8.658;2024-03-06T06:33:06;100687.78;;;5.97;100.00
54854;BME280;40747;49.480;8.658;2024-03-06T06:35:32;100687.72;;;6.09;100.00
54854;BME280;40747;49.480;8.658;2024-03-06T06:37:59;100690.31;;;6.17;100.00
54854;BME280;40747;49.480;8.658;2024-03-06T06:40:25;100689.38;;;6.26;100.00
54854;BME280;40747;49.480;8.658;2024-03-06T06:42:50;100687.59;;;6.31;100.00
54854;BME280;40747;49.480;8.658;2024-03-06T06:45:16;100682.31;;;6.37;100.00
54854;BME280;40747;49.480;8.658;2024-03-06T06:47:42;100684.88;;;6.42;100.00
54854;BME280;40747;49.480;8.658;2024-03-06T06:50:07;100690.06;;;6.48;100.00
54854;BME280;40747;49.480;8.658;2024-03-06T06:52:34;100693.50;;;6.56;100.00
54854;BME280;40747;49.480;8.658;2024-03-06T06:55:00;100699.56;;;6.61;100.00
54854;BME280;40747;49.480;8.658;2024-03-06T06:57:25;100703.03;;;6.63;100.00
54854;BME280;40747;49.480;8.658;2024-03-06T06:59:51;100698.63;;;6.71;100.00
54854;BME280;40747;49.480;8.658;2024-03-06T07:02:17;100706.50;;;6.67;100.00
54854;BME280;40747;49.480;8.658;2024-03-06T07:04:42;100705.56;;;6.72;100.00
54854;BME280;40747;49.480;8.658;2024-03-06T07:07:08;100704.66;;;6.78;100.00
54854;BME280;40747;49.480;8.658;2024-03-06T07:09:33;100710.69;;;6.85;100.00
54854;BME280;40747;49.480;8.658;2024-03-06T07:11:59;100704.59;;;6.86;99.87
54854;BME280;40747;49.480;8.658;2024-03-06T07:14:24;100717.63;;;6.89;99.77
54854;BME280;40747;49.480;8.658;2024-03-06T07:16:50;100715.84;;;6.94;100.00
54854;BME280;40747;49.480;8.658;2024-03-06T07:19:15;100722.78;;;7.00;99.68
54854;BME280;40747;49.480;8.658;2024-03-06T07:21:42;100722.81;;;6.98;100.00
54854;BME280;40747;49.480;8.658;2024-03-06T07:24:07;100714.06;;;6.99;99.52
54854;BME280;40747;49.480;8.658;2024-03-06T07:26:32;100720.16;;;7.01;99.17
54854;BME280;40747;49.480;8.658;2024-03-06T07:28:58;100725.28;;;7.11;99.00
54854;BME280;40747;49.480;8.658;2024-03-06T07:31:24;100720.06;;;7.11;98.48
54854;BME280;40747;49.480;8.658;2024-03-06T07:33:49;100725.22;;;7.18;98.59
54854;BME280;40747;49.480;8.658;2024-03-06T07:36:15;100729.53;;;7.24;99.23
54854;BME280;40747;49.480;8.658;2024-03-06T07:38:41;100733.84;;;7.28;99.29
54854;BME280;40747;49.480;8.658;2024-03-06T07:41:06;100737.34;;;7.27;99.17
54854;BME280;40747;49.480;8.658;2024-03-06T07:43:32;100740.72;;;7.40;98.75
54854;BME280;40747;49.480;8.658;2024-03-06T07:45:57;100745.03;;;7.44;98.20
54854;BME280;40747;49.480;8.658;2024-03-06T07:48:22;100743.22;;;7.51;98.41
54854;BME280;40747;49.480;8.658;2024-03-06T07:50:48;100744.94;;;7.55;97.66
54854;BME280;40747;49.480;8.658;2024-03-06T07:53:13;100747.41;;;7.69;97.64
54854;BME280;40747;49.480;8.658;2024-03-06T07:55:39;100756.94;;;7.75;97.02
54854;BME280;40747;49.480;8.658;2024-03-06T07:58:04;100756.00;;;7.80;96.56
54854;BME280;40747;49.480;8.658;2024-03-06T08:00:30;100759.47;;;7.81;96.25
54854;BME280;40747;49.480;8.658;2024-03-06T08:02:56;100744.69;;;7.74;96.66
54854;BME280;40747;49.480;8.658;2024-03-06T08:05:22;100762.97;;;7.80;97.61
54854;BME280;40747;49.480;8.658;2024-03-06T08:07:47;100763.78;;;7.88;97.99
54854;BME280;40747;49.480;8.658;2024-03-06T08:10:12;100772.41;;;7.96;97.38
54854;BME280;40747;49.480;8.658;2024-03-06T08:12:41;100767.91;;;8.06;97.40
54854;BME280;40747;49.480;8.658;2024-03-06T08:15:09;100777.34;;;8.21;96.76
54854;BME280;40747;49.480;8.658;2024-03-06T08:17:35;100772.13;;;8.18;95.87
54854;BME280;40747;49.480;8.658;2024-03-06T08:20:02;100763.38;;;8.17;95.16
54854;BME280;40747;49.480;8.658;2024-03-06T08:22:30;100776.56;;;8.13;95.41
54854;BME280;40747;49.480;8.658;2024-03-06T08:24:56;100778.19;;;8.22;95.94
54854;BME280;40747;49.480;8.658;2024-03-06T08:27:21;100780.69;;;8.31;95.61
54854;BME280;40747;49.480;8.658;2024-03-06T08:29:46;100773.53;;;8.42;95.43
54854;BME280;40747;49.480;8.658;2024-03-06T08:32:13;100770.91;;;8.42;93.82
54854;BME280;40747;49.480;8.658;2024-03-06T08:34:39;100767.38;;;8.46;94.40
54854;BME280;40747;49.480;8.658;2024-03-06T08:37:04;100780.44;;;8.51;94.31
54854;BME280;40747;49.480;8.658;2024-03-06T08:39:30;100786.50;;;8.56;94.85
54854;BME280;40747;49.480;8.658;2024-03-06T08:41:56;100785.75;;;8.48;93.83
54854;BME280;40747;49.480;8.658;2024-03-06T08:44:23;100790.81;;;8.60;93.99
54854;BME280;40747;49.480;8.658;2024-03-06T08:46:48;100789.44;;;8.31;92.49
54854;BME280;40747;49.480;8.658;2024-03-06T08:49:13;100794.78;;;8.25;93.42
54854;BME280;40747;49.480;8.658;2024-03-06T08:51:39;100792.16;;;8.25;93.43
54854;BME280;40747;49.480;8.658;2024-03-06T08:54:04;100783.22;;;8.37;94.83
54854;BME280;40747;49.480;8.658;2024-03-06T08:56:29;100786.63;;;8.44;94.63
54854;BME280;40747;49.480;8.658;2024-03-06T08:58:55;100792.25;;;8.17;93.76
54854;BME280;40747;49.480;8.658;2024-03-06T09:01:20;100791.34;;;8.20;94.51
54854;BME280;40747;49.480;8.658;2024-03-06T09:03:45;100798.19;;;8.32;95.59
54854;BME280;40747;49.480;8.658;2024-03-06T09:06:10;100792.78;;;8.46;96.19
54854;BME280;40747;49.480;8.658;2024-03-06T09:08:37;100788.88;;;8.72;95.31
54854;BME280;40747;49.480;8.658;2024-03-06T09:11:03;100799.06;;;8.93;93.96
54854;BME280;40747;49.480;8.658;2024-03-06T09:13:28;100786.69;;;9.00;93.82
54854;BME280;40747;49.480;8.658;2024-03-06T09:15:53;100797.88;;;9.11;92.17
54854;BME280;40747;49.480;8.658;2024-03-06T09:18:19;100789.09;;;9.12;90.50
54854;BME280;40747;49.480;8.658;2024-03-06T09:20:44;100792.25;;;8.81;90.14
54854;BME280;40747;49.480;8.658;2024-03-06T09:23:09;100798.06;;;8.99;90.27
54854;BME280;40747;49.480;8.658;2024-03-06T09:25:34;100790.00;;;9.11;90.07
54854;BME280;40747;49.480;8.658;2024-03-06T09:28:00;100788.41;;;9.01;89.53
54854;BME280;40747;49.480;8.658;2024-03-06T09:30:29;100800.97;;;8.82;89.42
54854;BME280;40747;49.480;8.658;2024-03-06T09:32:55;100798.34;;;8.82;89.20
54854;BME280;40747;49.480;8.658;2024-03-06T09:35:20;100799.13;;;8.89;89.68
54854;BME280;40747;49.480;8.658;2024-03-06T09:37:45;100787.84;;;8.82;89.12
54854;BME280;40747;49.480;8.658;2024-03-06T09:40:19;100792.28;;;9.31;89.93
54854;BME280;40747;49.480;8.658;2024-03-06T09:42:45;100795.66;;;9.38;89.03
54854;BME280;40747;49.480;8.658;2024-03-06T09:45:10;100800.41;;;9.17;87.39
54854;BME280;40747;49.480;8.658;2024-03-06T09:47:36;100795.00;;;9.25;87.21
54854;BME280;40747;49.480;8.658;2024-03-06T09:50:04;100805.31;;;9.38;88.02
54854;BME280;40747;49.480;8.658;2024-03-06T09:52:34;100803.34;;;9.50;86.71
54854;BME280;40747;49.480;8.658;2024-03-06T09:55:00;100800.75;;;9.47;87.46
54854;BME280;40747;49.480;8.658;2024-03-06T09:57:26;100807.31;;;9.25;87.97
54854;BME280;40747;49.480;8.658;2024-03-06T09:59:51;100807.78;;;9.47;87.39
54854;BME280;40747;49.480;8.658;2024-03-06T10:02:33;100814.00;;;9.43;87.87
54854;BME280;40747;49.480;8.658;2024-03-06T10:05:00;100812.81;;;9.58;88.20
54854;BME280;40747;49.480;8.658;2024-03-06T10:07:25;100808.66;;;9.46;86.55
54854;BME280;40747;49.480;8.658;2024-03-06T10:09:52;100814.38;;;9.70;87.06
54854;BME280;40747;49.480;8.658;2024-03-06T10:12:17;100808.03;;;9.80;86.23
54854;BME280;40747;49.480;8.658;2024-03-06T10:14:53;100809.34;;;10.03;86.09
54854;BME280;40747;49.480;8.658;2024-03-06T10:17:20;100814.50;;;9.63;86.85
54854;BME280;40747;49.480;8.658;2024-03-06T10:19:48;100811.53;;;9.33;87.43
54854;BME280;40747;49.480;8.658;2024-03-06T10:22:16;100803.94;;;9.65;87.54
54854;BME280;40747;49.480;8.658;2024-03-06T10:24:42;100786.34;;;10.11;86.72
54854;BME280;40747;49.480;8.658;2024-03-06T10:27:07;100819.22;;;10.74;84.85
54854;BME280;40747;49.480;8.658;2024-03-06T10:29:33;100816.03;;;10.60;83.11
54854;BME280;40747;49.480;8.658;2024-03-06T10:32:00;100812.50;;;10.61;83.95
54854;BME280;40747;49.480;8.658;2024-03-06T10:34:27;100781.63;;;10.27;83.71
54854;BME280;40747;49.480;8.658;2024-03-06T10:37:00;100802.84;;;10.60;85.03
54854;BME280;40747;49.480;8.658;2024-03-06T10:39:27;100817.53;;;10.70;84.50
54854;BME280;40747;49.480;8.658;2024-03-06T10:41:53;100815.44;;;10.47;83.63
54854;BME280;40747;49.480;8.658;2024-03-06T10:44:21;100815.97;;;10.63;84.92
54854;BME280;40747;49.480;8.658;2024-03-06T10:46:56;100820.31;;;10.65;84.51
54854;BME280;40747;49.480;8.658;2024-03-06T10:49:25;100820.97;;;10.74;84.82
54854;BME280;40747;49.480;8.658;2024-03-06T10:51:51;100811.75;;;10.92;84.40
54854;BME280;40747;49.480;8.658;2024-03-06T10:54:19;100811.69;;;10.57;84.57
54854;BME280;40747;49.480;8.658;2024-03-06T10:56:44;100812.00;;;10.45;85.02
54854;BME280;40747;49.480;8.658;2024-03-06T10:59:11;100814.41;;;10.54;86.27
54854;BME280;40747;49.480;8.658;2024-03-06T11:01:39;100811.06;;;10.85;83.93
54854;BME280;40747;49.480;8.658;2024-03-06T11:04:06;100815.19;;;10.95;83.71
54854;BME280;40747;49.480;8.658;2024-03-06T11:06:32;100806.63;;;10.87;83.80
54854;BME280;40747;49.480;8.658;2024-03-06T11:08:59;100816.78;;;11.03;83.61
54854;BME280;40747;49.480;8.658;2024-03-06T11:11:25;100812.66;;;10.92;82.69
54854;BME280;40747;49.480;8.658;2024-03-06T11:13:54;100814.94;;;11.06;83.42
54854;BME280;40747;49.480;8.658;2024-03-06T11:16:27;100803.53;;;11.06;83.03
54854;BME280;40747;49.480;8.658;2024-03-06T11:19:04;100807.38;;;10.92;82.79
54854;BME280;40747;49.480;8.658;2024-03-06T11:21:31;100807.94;;;11.05;82.75
54854;BME280;40747;49.480;8.658;2024-03-06T11:26:36;100807.44;;;10.89;83.38
54854;BME280;40747;49.480;8.658;2024-03-06T11:29:02;100816.09;;;10.94;82.23
54854;BME280;40747;49.480;8.658;2024-03-06T11:31:27;100812.50;;;10.97;82.03
54854;BME280;40747;49.480;8.658;2024-03-06T11:33:53;100807.41;;;11.27;81.96
54854;BME280;40747;49.480;8.658;2024-03-06T11:36:23;100805.09;;;11.47;81.08
54854;BME280;40747;49.480;8.658;2024-03-06T11:39:07;100810.47;;;11.76;80.53
54854;BME280;40747;49.480;8.658;2024-03-06T11:41:47;100810.38;;;11.79;79.28
54854;BME280;40747;49.480;8.658;2024-03-06T11:44:15;100812.44;;;11.69;80.14
54854;BME280;40747;49.480;8.658;2024-03-06T11:46:45;100804.97;;;11.52;79.57
54854;BME280;40747;49.480;8.658;2024-03-06T11:49:20;100794.13;;;11.63;79.96
54854;BME280;40747;49.480;8.658;2024-03-06T11:51:47;100800.41;;;11.59;79.83
54854;BME280;40747;49.480;8.658;2024-03-06T11:54:13;100798.56;;;11.62;80.19
54854;BME280;40747;49.480;8.658;2024-03-06T11:56:40;100804.16;;;11.50;80.84
54854;BME280;40747;49.480;8.658;2024-03-06T11:59:05;100799.34;;;11.31;80.52
54854;BME280;40747;49.480;8.658;2024-03-06T12:01:33;100792.47;;;11.59;80.39
54854;BME280;40747;49.480;8.658;2024-03-06T12:03:58;100799.50;;;11.58;79.31
54854;BME280;40747;49.480;8.658;2024-03-06T12:06:23;100797.13;;;11.49;79.88
54854;BME280;40747;49.480;8.658;2024-03-06T12:08:49;100796.91;;;11.25;79.86
54854;BME280;40747;49.480;8.658;2024-03-06T12:11:14;100797.59;;;11.32;80.66
54854;BME280;40747;49.480;8.658;2024-03-06T12:13:41;100791.63;;;11.25;80.78
54854;BME280;40747;49.480;8.658;2024-03-06T12:16:07;100798.78;;;11.20;81.60
54854;BME280;40747;49.480;8.658;2024-03-06T12:18:33;100783.88;;;11.18;81.20
54854;BME280;40747;49.480;8.658;2024-03-06T12:21:00;100790.13;;;11.13;81.23
54854;BME280;40747;49.480;8.658;2024-03-06T12:23:28;100786.41;;;11.22;80.89
54854;BME280;40747;49.480;8.658;2024-03-06T12:28:28;100797.84;;;11.21;81.02
54854;BME280;40747;49.480;8.658;2024-03-06T12:30:53;100793.66;;;11.14;81.00
54854;BME280;40747;49.480;8.658;2024-03-06T12:33:19;100792.44;;;11.27;81.31
54854;BME280;40747;49.480;8.658;2024-03-06T12:35:45;100789.94;;;11.23;81.01
54854;BME280;40747;49.480;8.658;2024-03-06T12:38:14;100792.28;;;11.34;81.07
54854;BME280;40747;49.480;8.658;2024-03-06T12:40:40;100795.75;;;11.34;80.46
54854;BME280;40747;49.480;8.658;2024-03-06T12:43:06;100798.34;;;11.37;80.89
54854;BME280;40747;49.480;8.658;2024-03-06T12:45:31;100788.25;;;11.20;83.66
54854;BME280;40747;49.480;8.658;2024-03-06T12:47:56;100789.88;;;11.24;83.57
54854;BME280;40747;49.480;8.658;2024-03-06T12:50:21;100800.19;;;11.34;84.46
54854;BME280;40747;49.480;8.658;2024-03-06T12:52:47;100769.53;;;10.95;83.27
54854;BME280;40747;49.480;8.658;2024-03-06T12:55:12;100793.13;;;10.99;82.57